Time;durP1;ratioP1;P1;durP2;ratioP2;P2;SDS_P1;SDS_P2;PMS_P1;PMS_P2;Temp;Humidity;BMP_temperature;BMP_pressure;BME280_temperature;BME280_humidity;BME280_pressure;Samples;Min_cycle;Max_cycle;Signal;HPM_P1;HPM_P2
2023/09/09 00:01:35;;;;;;;25.35;18.83;;;;;;;21.52;89.00;101352.69;3592093;39;20347;-67
2023/09/09 00:04:03;;;;;;;25.70;19.88;;;;;;;21.51;88.96;101350.97;3590988;39;20060;-67
2023/09/09 00:06:28;;;;;;;22.67;20.20;;;;;;;21.50;89.18;101346.53;3592806;39;20456;-67
2023/09/09 00:08:54;;;;;;;27.92;22.80;;;;;;;21.49;89.75;101342.06;3594802;39;20059;-67
2023/09/09 00:11:20;;;;;;;27.20;24.48;;;;;;;21.47;89.85;101344.09;3584911;39;20423;-67
2023/09/09 00:13:46;;;;;;;26.50;23.80;;;;;;;21.30;89.38;101321.13;3590947;39;20065;-66
2023/09/09 00:16:12;;;;;;;25.73;23.02;;;;;;;21.42;90.08;101346.44;3593281;39;20101;-67
2023/09/09 00:18:38;;;;;;;26.00;23.20;;;;;;;21.40;89.82;101345.72;3592734;39;20329;-66
2023/09/09 00:21:05;;;;;;;25.27;22.67;;;;;;;21.38;90.05;101350.50;3593239;39;20051;-66
2023/09/09 00:23:31;;;;;;;26.13;23.27;;;;;;;21.36;90.16;101349.78;3590014;39;20091;-66
2023/09/09 00:25:56;;;;;;;26.63;23.75;;;;;;;20.79;90.05;101245.13;3595487;39;20044;-68
2023/09/09 00:28:23;;;;;;;29.08;23.70;;;;;;;21.19;90.66;101323.22;3591821;39;20103;-66
2023/09/09 00:30:50;;;;;;;28.20;25.00;;;;;;;21.07;90.48;101304.25;3592327;39;20478;-66
2023/09/09 00:33:16;;;;;;;27.23;24.38;;;;;;;21.24;90.70;101332.66;3593075;39;20124;-67
2023/09/09 00:35:42;;;;;;;27.77;24.98;;;;;;;21.24;90.94;101340.88;3591223;39;20052;-65
2023/09/09 00:38:13;;;;;;;29.13;26.35;;;;;;;21.22;90.84;101333.84;3594249;39;20051;-67
2023/09/09 00:41:03;;;;;;;31.77;28.63;;;;;;;21.21;90.73;101329.38;3592914;39;20336;-66
2023/09/09 00:43:29;;;;;;;33.72;30.35;;;;;;;21.15;91.02;101333.56;3589136;39;20052;-67
2023/09/09 00:45:55;;;;;;;33.95;30.60;;;;;;;21.14;91.59;101333.72;3591665;39;20056;-66
2023/09/09 00:48:20;;;;;;;33.45;30.25;;;;;;;21.10;90.99;101335.91;3590222;39;20306;-68
2023/09/09 00:50:46;;;;;;;36.03;32.40;;;;;;;21.00;91.94;101316.81;3591575;39;20091;-67
2023/09/09 00:53:13;;;;;;;35.38;31.92;;;;;;;20.90;91.62;101313.28;3591862;39;20374;-66
2023/09/09 00:55:40;;;;;;;34.22;31.02;;;;;;;20.75;91.44;101292.91;3592217;39;20059;-67
2023/09/09 00:58:07;;;;;;;35.63;31.10;;;;;;;20.88;91.38;101328.97;3589526;39;20141;-67
2023/09/09 01:00:33;;;;;;;32.13;29.02;;;;;;;20.92;91.31;101338.56;3590316;39;20056;-66
2023/09/09 01:02:58;;;;;;;32.45;28.92;;;;;;;20.90;91.46;101337.88;3591197;39;20504;-67
2023/09/09 01:05:26;;;;;;;31.20;28.05;;;;;;;20.89;91.04;101338.00;3590349;39;20519;-67
2023/09/09 01:07:51;;;;;;;32.53;29.33;;;;;;;20.85;90.70;101337.44;3591221;39;20378;-66
2023/09/09 01:10:18;;;;;;;32.83;29.63;;;;;;;20.83;91.24;101340.31;3591309;39;20054;-66
2023/09/09 01:12:45;;;;;;;36.78;33.15;;;;;;;20.80;91.54;101331.56;3595531;39;21616;-67
2023/09/09 01:15:12;;;;;;;37.42;33.70;;;;;;;20.76;91.83;101335.59;3592768;39;20216;-66
2023/09/09 01:17:39;;;;;;;37.97;34.47;;;;;;;20.72;92.29;101337.78;3592213;39;20059;-66
2023/09/09 01:20:12;;;;;;;37.40;33.67;;;;;;;20.71;92.00;101335.19;3591939;39;20136;-66
2023/09/09 01:22:40;;;;;;;;;;;;;;;20.64;91.90;101333.03;3590950;39;20051;-67
2023/09/09 01:25:06;;;;;;;35.95;32.35;;;;;;;20.64;92.08;101338.50;3593145;39;19980;-64
2023/09/09 01:27:33;;;;;;;36.55;32.72;;;;;;;20.63;91.95;101325.88;3590288;39;20043;-67
2023/09/09 01:29:59;;;;;;;35.20;31.65;;;;;;;20.56;92.13;101315.69;3584125;40;20117;-67
2023/09/09 01:32:26;;;;;;;38.85;34.97;;;;;;;20.66;92.15;101332.06;3592791;39;20067;-67
2023/09/09 01:34:52;;;;;;;38.30;34.63;;;;;;;20.44;92.37;101293.09;3592777;39;20074;-67
2023/09/09 01:37:18;;;;;;;41.53;37.38;;;;;;;20.60;91.92;101328.03;3591254;39;20056;-67
2023/09/09 01:39:45;;;;;;;38.80;35.10;;;;;;;20.57;92.15;101323.72;3592853;39;20117;-67
2023/09/09 01:42:11;;;;;;;41.45;37.30;;;;;;;20.55;91.63;101325.75;3593197;39;20303;-68
2023/09/09 01:44:36;;;;;;;41.78;37.60;;;;;;;20.54;92.29;101326.75;3592748;39;20048;-67
2023/09/09 01:47:02;;;;;;;41.08;36.90;;;;;;;20.36;92.50;101298.44;3582886;39;20091;-66
2023/09/09 01:49:28;;;;;;;42.10;38.00;;;;;;;20.54;91.96;101329.47;3591183;39;20129;-66
2023/09/09 01:51:53;;;;;;;42.97;38.72;;;;;;;20.52;92.49;101331.53;3591164;39;20055;-66
2023/09/09 01:54:19;;;;;;;44.95;40.30;;;;;;;20.52;93.26;101326.06;3591878;39;20059;-65
2023/09/09 01:56:45;;;;;;;45.78;41.00;;;;;;;20.51;92.67;101328.88;3592664;39;20059;-66
2023/09/09 01:59:10;;;;;;;43.55;39.35;;;;;;;20.51;93.30;101328.88;3594243;39;20108;-66
2023/09/09 02:01:36;;;;;;;46.92;42.22;;;;;;;20.49;93.04;101328.16;3593757;39;20058;-66
2023/09/09 02:04:01;;;;;;;46.25;41.63;;;;;;;20.48;92.59;101324.56;3591579;39;20082;-66
2023/09/09 02:06:28;;;;;;;47.75;43.00;;;;;;;20.41;93.04;101312.53;3592317;39;20094;-66
2023/09/09 02:08:54;;;;;;;46.10;41.55;;;;;;;20.45;92.90;101324.00;3590761;39;20056;-62
2023/09/09 02:11:19;;;;;;;47.17;42.60;;;;;;;20.41;93.10;101317.97;3591772;39;20055;-64
2023/09/09 02:13:45;;;;;;;47.53;42.92;;;;;;;20.43;93.75;101315.13;3593842;39;20412;-63
2023/09/09 02:16:11;;;;;;;47.92;43.22;;;;;;;20.39;94.00;101317.25;3592683;39;20056;-63
2023/09/09 02:18:40;;;;;;;47.63;43.13;;;;;;;20.25;93.82;101298.63;3582555;39;20055;-65
2023/09/09 02:21:07;;;;;;;47.15;42.63;;;;;;;20.35;93.74;101322.16;3593831;39;20044;-63
2023/09/09 02:23:33;;;;;;;48.83;43.92;;;;;;;20.34;94.09;101320.44;3591849;39;20391;-61
2023/09/09 02:25:58;;;;;;;48.15;43.53;;;;;;;20.33;93.52;101326.03;3592669;39;20113;-62
2023/09/09 02:28:25;;;;;;;47.95;43.22;;;;;;;20.33;94.26;101326.03;3592114;39;20070;-61
2023/09/09 02:30:51;;;;;;;48.55;43.83;;;;;;;20.32;93.88;101322.44;3594005;39;20124;-63
2023/09/09 02:33:16;;;;;;;50.30;45.20;;;;;;;20.33;94.03;101326.03;3590176;39;20122;-63
2023/09/09 02:35:45;;;;;;;49.70;44.80;;;;;;;20.32;93.92;101329.78;3591860;39;20416;-63
2023/09/09 02:38:11;;;;;;;48.92;44.17;;;;;;;20.30;93.73;101321.75;3592149;39;20302;-62
2023/09/09 02:40:36;;;;;;;51.65;46.42;;;;;;;20.30;93.64;101323.63;3592437;39;20048;-63
2023/09/09 02:43:03;;;;;;;54.15;48.95;;;;;;;20.28;93.47;101322.91;3591835;39;20382;-64
2023/09/09 02:45:28;;;;;;;53.80;48.42;;;;;;;20.27;92.98;101326.66;3591448;39;20059;-62
2023/09/09 02:47:54;;;;;;;56.08;50.58;;;;;;;20.26;93.25;101325.75;3591532;39;20416;-63
2023/09/09 02:50:20;;;;;;;57.35;51.72;;;;;;;20.06;93.32;101291.31;3591754;39;20061;-64
2023/09/09 02:52:49;;;;;;;57.80;51.97;;;;;;;20.24;93.70;101326.94;3591844;39;20125;-63
2023/09/09 02:55:14;;;;;;;58.38;52.47;;;;;;;20.21;94.00;101327.22;3592368;39;20056;-63
2023/09/09 02:57:40;;;;;;;58.53;52.67;;;;;;;20.20;94.11;101325.47;3591121;39;20324;-64
2023/09/09 03:00:09;;;;;;;62.75;56.17;;;;;;;20.18;94.00;101317.44;3590823;39;20047;-63
2023/09/09 03:02:35;;;;;;;63.33;56.83;;;;;;;20.09;94.40;101310.97;3592871;39;20056;-62
2023/09/09 03:05:02;;;;;;;65.43;58.78;;;;;;;20.17;95.07;101323.91;3593319;39;20422;-64
2023/09/09 03:07:28;;;;;;;63.50;56.90;;;;;;;20.16;94.61;101322.19;3592918;39;20095;-62
2023/09/09 03:09:54;;;;;;;63.92;57.28;;;;;;;20.13;94.58;101320.59;3592083;39;20054;-62
2023/09/09 03:12:20;;;;;;;62.80;56.55;;;;;;;20.12;94.03;101321.63;3590383;39;20063;-63
2023/09/09 03:14:50;;;;;;;64.20;57.63;;;;;;;20.12;93.86;101329.81;3590775;39;20052;-63
2023/09/09 03:17:17;;;;;;;63.67;57.08;;;;;;;20.11;93.92;101330.81;3591929;39;20060;-63
2023/09/09 03:19:43;;;;;;;64.32;57.83;;;;;;;20.10;94.38;101320.03;3591140;39;20310;-64
2023/09/09 03:22:08;;;;;;;63.13;56.75;;;;;;;19.90;94.34;101298.22;3594530;39;20077;-63
2023/09/09 03:24:34;;;;;;;65.47;58.65;;;;;;;20.06;94.42;101324.91;3592267;39;20111;-65
2023/09/09 03:26:59;;;;;;;64.55;58.00;;;;;;;20.05;93.92;101323.22;3593107;39;20064;-62
2023/09/09 03:29:25;;;;;;;69.40;62.05;;;;;;;20.02;94.53;101325.38;3589849;39;20074;-62
2023/09/09 03:31:51;;;;;;;70.68;63.17;;;;;;;19.97;95.14;101323.06;3591260;39;20060;-63
2023/09/09 03:34:17;;;;;;;70.40;63.05;;;;;;;19.95;94.69;101322.34;3590848;39;20058;-61
2023/09/09 03:36:42;;;;;;;73.00;65.40;;;;;;;19.90;95.96;101313.72;3592536;39;20093;-62
2023/09/09 03:39:09;;;;;;;76.65;68.80;;;;;;;19.82;96.61;101317.19;3592115;39;20055;-62
2023/09/09 03:41:34;;;;;;;76.28;68.38;;;;;;;19.83;96.62;101326.22;3590518;39;20407;-62
2023/09/09 03:44:00;;;;;;;76.00;67.85;;;;;;;19.80;96.11;101326.50;3591453;39;20059;-64
2023/09/09 03:46:26;;;;;;;72.97;65.30;;;;;;;19.68;96.08;101310.25;3590402;39;20329;-63
2023/09/09 03:48:51;;;;;;;70.07;62.75;;;;;;;19.71;95.48;101323.63;3591044;39;20074;-65
2023/09/09 03:51:19;;;;;;;70.97;63.30;;;;;;;19.67;95.79;101324.06;3593775;39;20308;-63
2023/09/09 03:53:45;;;;;;;70.10;62.88;;;;;;;19.63;96.12;101323.44;3590985;39;20279;-64
2023/09/09 03:56:10;;;;;;;72.95;65.47;;;;;;;19.58;95.29;101325.72;3591050;39;20108;-64
2023/09/09 03:58:36;;;;;;;72.75;64.57;;;;;;;19.53;95.97;101336.19;3590627;39;20051;-63
2023/09/09 04:01:09;;;;;;;71.50;63.72;;;;;;;19.50;96.83;101333.75;3590674;39;20052;-63
2023/09/09 04:03:37;;;;;;;73.38;65.35;;;;;;;19.48;96.96;101335.75;3591718;39;20054;-65
2023/09/09 04:06:08;;;;;;;69.20;62.03;;;;;;;19.47;95.91;101331.28;3592582;39;20095;-65
2023/09/09 04:08:36;;;;;;;72.82;65.15;;;;;;;19.45;96.08;101328.72;3592191;39;20309;-65
2023/09/09 04:11:03;;;;;;;74.10;64.55;;;;;;;19.43;95.55;101333.44;3591224;39;20051;-65
2023/09/09 04:13:29;;;;;;;73.97;65.82;;;;;;;19.41;95.84;101332.75;3590204;39;20067;-65
2023/09/09 04:15:56;;;;;;;74.68;66.85;;;;;;;19.40;96.00;101332.84;3594447;39;20437;-65
2023/09/09 04:18:27;;;;;;;71.68;64.25;;;;;;;19.37;95.99;101333.13;3594344;39;20137;-66
2023/09/09 04:20:53;;;;;;;70.75;63.30;;;;;;;19.33;96.05;101331.69;3594015;39;20051;-65
2023/09/09 04:23:19;;;;;;;70.45;63.10;;;;;;;19.34;94.88;101327.97;3590648;39;20058;-65
2023/09/09 04:25:46;;;;;;;70.18;62.67;;;;;;;19.34;95.21;101333.41;3590679;39;20476;-67
2023/09/09 04:28:13;;;;;;;70.75;63.20;;;;;;;19.29;94.93;101331.13;3591954;39;20423;-66
2023/09/09 04:30:41;;;;;;;70.35;62.95;;;;;;;19.27;95.13;101334.97;3593426;39;20044;-66
2023/09/09 04:33:11;;;;;;;68.65;61.45;;;;;;;19.24;94.82;101331.53;3595211;39;20047;-65
2023/09/09 04:35:39;;;;;;;72.05;64.60;;;;;;;19.22;95.07;101328.09;3594433;39;20051;-65
2023/09/09 04:38:06;;;;;;;71.72;64.13;;;;;;;19.18;95.31;101323.91;3594899;39;20045;-66
2023/09/09 04:40:32;;;;;;;76.20;68.03;;;;;;;19.19;94.83;101342.00;3593387;39;20124;-66
2023/09/09 04:42:58;;;;;;;77.82;66.80;;;;;;;19.18;95.25;101340.25;3591501;39;20059;-66
2023/09/09 04:45:23;;;;;;;72.85;64.95;;;;;;;19.18;95.37;101342.13;3591817;39;20063;-65
2023/09/09 04:47:51;;;;;;;71.93;64.32;;;;;;;19.13;94.96;101341.69;3594154;39;20048;-66
2023/09/09 04:50:19;;;;;;;74.00;66.32;;;;;;;19.15;95.13;101345.97;3594853;39;20052;-66
2023/09/09 04:52:45;;;;;;;73.75;65.88;;;;;;;19.15;95.14;101343.25;3594070;39;20064;-66
2023/09/09 04:55:12;;;;;;;73.90;65.82;;;;;;;19.14;95.14;101355.16;3591552;39;20056;-67
2023/09/09 04:57:39;;;;;;;73.47;65.45;;;;;;;19.13;95.08;101348.00;3590152;39;20298;-65
2023/09/09 05:00:07;;;;;;;76.10;67.88;;;;;;;19.10;95.97;101340.09;3590678;39;20048;-63
2023/09/09 05:02:38;;;;;;;78.07;69.68;;;;;;;19.11;95.00;101343.69;3591631;39;20063;-65
2023/09/09 05:05:05;;;;;;;82.15;73.10;;;;;;;19.13;95.82;101347.13;3580256;39;20052;-66
2023/09/09 05:07:34;;;;;;;90.75;80.82;;;;;;;19.12;95.76;101346.25;3594281;39;20067;-66
2023/09/09 05:10:04;;;;;;;89.30;79.28;;;;;;;19.05;95.91;101339.63;3592651;39;20051;-66
2023/09/09 05:12:33;;;;;;;90.72;80.57;;;;;;;19.08;95.63;101341.22;3585344;39;20102;-66
2023/09/09 05:14:59;;;;;;;93.25;83.43;;;;;;;18.86;95.47;101317.75;3590583;39;20058;-66
2023/09/09 05:17:25;;;;;;;99.20;88.22;;;;;;;18.92;96.14;101317.22;3590919;39;20399;-66
2023/09/09 05:19:51;;;;;;;99.03;88.15;;;;;;;19.09;96.39;101351.97;3592449;39;20052;-66
2023/09/09 05:22:17;;;;;;;101.55;90.45;;;;;;;19.11;97.10;101349.13;3591414;39;20121;-65
2023/09/09 05:24:43;;;;;;;100.97;90.07;;;;;;;19.10;97.03;101344.69;3591878;39;20400;-65
2023/09/09 05:27:08;;;;;;;106.13;94.35;;;;;;;19.08;96.28;101350.25;3594044;39;20066;-66
2023/09/09 05:29:34;;;;;;;107.53;95.90;;;;;;;19.08;96.74;101361.16;3589297;39;20064;-65
2023/09/09 05:31:59;;;;;;;116.25;97.88;;;;;;;19.06;97.77;101357.72;3591147;39;20063;-65
2023/09/09 05:34:25;;;;;;;116.07;100.57;;;;;;;18.99;98.05;101346.50;3588478;39;20422;-67
2023/09/09 05:36:51;;;;;;;130.18;101.30;;;;;;;18.99;97.83;101351.94;3590396;39;20059;-66
2023/09/09 05:39:17;;;;;;;132.40;101.47;;;;;;;19.02;98.30;101367.16;3581178;39;20099;-63
2023/09/09 05:41:43;;;;;;;114.00;100.35;;;;;;;18.96;98.95;101360.38;3593754;39;20071;-63
2023/09/09 05:44:08;;;;;;;109.65;97.95;;;;;;;18.99;98.29;101367.44;3593492;39;20139;-65
2023/09/09 05:46:34;;;;;;;115.35;103.28;;;;;;;19.00;98.89;101369.19;3590320;39;20082;-64
2023/09/09 05:49:00;;;;;;;113.45;101.38;;;;;;;18.85;99.68;101340.56;3589885;39;20047;-65
2023/09/09 05:51:25;;;;;;;113.63;101.50;;;;;;;19.01;99.53;101370.88;3585503;39;20075;-65
2023/09/09 05:53:51;;;;;;;128.27;102.57;;;;;;;18.98;99.04;101368.44;3591011;39;20070;-63
2023/09/09 05:56:17;;;;;;;114.95;102.53;;;;;;;18.96;99.55;101356.81;3589853;39;20498;-64
2023/09/09 05:58:43;;;;;;;124.05;98.32;;;;;;;19.04;99.54;101369.75;3591077;39;20067;-64
2023/09/09 06:01:09;;;;;;;116.18;103.75;;;;;;;19.04;99.66;101367.91;3591212;39;20050;-64
2023/09/09 06:03:35;;;;;;;114.85;102.40;;;;;;;19.03;99.16;101374.34;3595298;39;20055;-63
2023/09/09 06:06:02;;;;;;;134.30;99.72;;;;;;;19.04;98.96;101369.75;3592984;39;20059;-65
2023/09/09 06:08:29;;;;;;;115.38;103.35;;;;;;;19.04;99.41;101381.53;3594319;39;20386;-65
2023/09/09 06:10:55;;;;;;;115.38;101.25;;;;;;;19.00;99.50;101375.47;3593422;39;20482;-66
2023/09/09 06:13:20;;;;;;;115.68;102.35;;;;;;;18.99;99.54;101387.34;3593993;39;20107;-63
2023/09/09 06:15:46;;;;;;;114.43;102.68;;;;;;;18.96;99.07;101381.31;3591638;39;20310;-64
2023/09/09 06:18:11;;;;;;;120.55;100.28;;;;;;;18.95;99.55;101383.19;3590739;39;20066;-66
2023/09/09 06:20:37;;;;;;;112.53;100.32;;;;;;;18.94;99.20;101388.78;3591623;39;20337;-64
2023/09/09 06:23:03;;;;;;;114.50;102.57;;;;;;;18.49;100.00;101310.06;3590008;39;20078;-65
2023/09/09 06:25:30;;;;;;;114.90;103.05;;;;;;;18.93;100.00;101389.75;3589961;39;20059;-65
2023/09/09 06:27:56;;;;;;;111.78;100.75;;;;;;;18.91;99.38;101391.78;3590680;39;20047;-66
2023/09/09 06:30:22;;;;;;;109.40;98.53;;;;;;;18.92;98.91;101393.50;3593516;39;20773;-65
2023/09/09 06:32:48;;;;;;;108.13;97.22;;;;;;;18.91;98.99;101402.69;3581547;39;20060;-65
2023/09/09 06:35:13;;;;;;;108.78;97.97;;;;;;;18.96;99.37;101401.25;3591517;39;20110;-65
2023/09/09 06:37:39;;;;;;;107.22;96.53;;;;;;;19.00;98.80;101402.72;3591168;39;20333;-64
2023/09/09 06:40:05;;;;;;;108.70;97.80;;;;;;;19.02;99.45;101399.84;3593084;39;20071;-65
2023/09/09 06:42:31;;;;;;;106.03;95.15;;;;;;;19.07;98.09;101410.38;3591396;39;20059;-63
2023/09/09 06:44:59;;;;;;;105.30;94.68;;;;;;;19.10;98.52;101402.78;3593740;39;20063;-65
2023/09/09 06:47:24;;;;;;;109.55;98.30;;;;;;;19.14;97.85;101406.94;3593582;39;20103;-65
2023/09/09 06:49:50;;;;;;;107.35;96.22;;;;;;;19.18;97.68;101416.56;3591584;39;20063;-65
2023/09/09 06:52:16;;;;;;;101.97;91.88;;;;;;;19.24;97.78;101407.84;3591256;39;20047;-65
2023/09/09 06:54:43;;;;;;;108.28;96.93;;;;;;;19.35;97.31;101414.22;3591655;39;20063;-65
2023/09/09 06:57:09;;;;;;;103.80;93.05;;;;;;;19.42;96.75;101421.69;3592656;39;20051;-64
2023/09/09 06:59:35;;;;;;;107.15;95.75;;;;;;;19.48;96.51;101423.03;3591023;39;20062;-65
2023/09/09 07:02:02;;;;;;;104.90;93.95;;;;;;;19.56;96.34;101427.78;3589936;39;20295;-67
2023/09/09 07:04:28;;;;;;;102.72;92.18;;;;;;;19.61;95.48;101429.09;3591151;39;20538;-67
2023/09/09 07:06:53;;;;;;;100.65;89.95;;;;;;;19.59;94.82;101412.00;3591319;39;20057;-67
2023/09/09 07:09:21;;;;;;;101.60;89.53;;;;;;;19.61;93.86;101399.09;3592796;39;20066;-67
2023/09/09 07:11:46;;;;;;;102.22;91.00;;;;;;;19.83;94.09;101421.72;3591869;39;20059;-69
2023/09/09 07:14:12;;;;;;;108.78;95.05;;;;;;;19.94;93.96;101425.16;3591538;39;20086;-66
2023/09/09 07:16:37;;;;;;;103.93;92.80;;;;;;;20.07;95.03;101424.91;3592107;39;20055;-68
2023/09/09 07:19:03;;;;;;;102.97;91.97;;;;;;;20.18;94.47;101423.91;3592403;39;20071;-69
2023/09/09 07:21:29;;;;;;;103.97;92.65;;;;;;;20.32;93.54;101417.16;3591459;39;20079;-67
2023/09/09 07:23:54;;;;;;;103.82;92.68;;;;;;;20.51;92.99;101428.09;3589934;39;20103;-66
2023/09/09 07:26:20;;;;;;;101.75;91.20;;;;;;;20.70;92.60;101438.16;3591870;39;20387;-67
2023/09/09 07:28:46;;;;;;;99.95;89.30;;;;;;;20.83;90.89;101441.44;3592318;39;20047;-66
2023/09/09 07:31:11;;;;;;;93.38;83.70;;;;;;;21.00;89.10;101445.31;3591862;39;20050;-68
2023/09/09 07:33:37;;;;;;;85.97;77.32;;;;;;;21.16;87.73;101444.69;3589772;39;20058;-66
2023/09/09 07:36:03;;;;;;;89.72;80.63;;;;;;;21.39;88.91;101445.19;3591268;39;20052;-68
2023/09/09 07:38:28;;;;;;;82.18;73.97;;;;;;;21.59;85.73;101439.63;3591676;39;20275;-67
2023/09/09 07:40:58;;;;;;;76.30;68.53;;;;;;;21.84;84.90;101455.34;3591483;39;20436;-67
2023/09/09 07:43:24;;;;;;;74.18;66.85;;;;;;;21.87;83.12;101430.41;3591812;39;20051;-66
2023/09/09 07:45:51;;;;;;;75.00;67.72;;;;;;;22.14;82.92;101456.03;3591536;39;20864;-68
2023/09/09 07:48:18;;;;;;;71.53;64.45;;;;;;;22.32;82.30;101453.31;3589794;39;20073;-67
2023/09/09 07:50:55;;;;;;;65.95;59.45;;;;;;;22.32;79.77;101431.41;3590973;39;20081;-68
2023/09/09 07:53:21;;;;;;;72.85;65.85;;;;;;;22.62;80.00;101444.69;3590725;39;20052;-67
2023/09/09 07:55:49;;;;;;;64.45;58.08;;;;;;;22.89;77.94;101457.41;3590731;39;20063;-67
2023/09/09 07:58:17;;;;;;;63.33;57.22;;;;;;;23.06;77.49;101452.94;3591975;39;20047;-66
2023/09/09 08:00:44;;;;;;;61.70;55.78;;;;;;;23.18;78.05;101459.00;3591002;39;20051;-66
2023/09/09 08:03:11;;;;;;;61.00;55.05;;;;;;;23.29;75.14;101439.53;3590961;39;20055;-66
2023/09/09 08:05:38;;;;;;;58.50;52.88;;;;;;;23.51;74.88;101465.56;3591520;39;20071;-67
2023/09/09 08:08:06;;;;;;;58.75;52.90;;;;;;;23.68;74.93;101460.13;3591397;39;20347;-66
2023/09/09 08:10:31;;;;;;;54.33;49.03;;;;;;;23.84;72.77;101457.47;3592040;39;20264;-66
2023/09/09 08:12:57;;;;;;;57.92;52.42;;;;;;;24.03;73.11;101461.84;3584469;39;20086;-67
2023/09/09 08:15:23;;;;;;;56.00;50.70;;;;;;;24.13;71.24;101462.53;3582321;39;20040;-69
2023/09/09 08:17:49;;;;;;;54.95;49.65;;;;;;;24.25;71.10;101460.34;3590027;39;20067;-66
2023/09/09 08:20:14;;;;;;;55.53;50.20;;;;;;;24.36;70.61;101468.28;3590112;39;20056;-67
2023/09/09 08:22:40;;;;;;;52.22;47.28;;;;;;;24.42;71.08;101444.75;3590232;39;20225;-67
2023/09/09 08:25:06;;;;;;;42.13;37.97;;;;;;;24.73;70.21;101475.19;3588643;39;20063;-65
2023/09/09 08:27:32;;;;;;;40.47;36.72;;;;;;;24.83;70.08;101477.75;3589786;39;20074;-67
2023/09/09 08:29:58;;;;;;;44.28;40.17;;;;;;;25.01;69.88;101475.69;3592392;39;20395;-68
2023/09/09 08:32:23;;;;;;;45.25;40.95;;;;;;;25.10;68.20;101479.31;3589935;39;20089;-67
2023/09/09 08:34:54;;;;;;;45.33;40.95;;;;;;;25.22;66.90;101469.69;3592421;39;20287;-68
2023/09/09 08:37:20;;;;;;;47.50;42.90;;;;;;;25.41;69.05;101476.69;3583941;39;20516;-67
2023/09/09 08:39:49;;;;;;;45.55;41.13;;;;;;;25.52;66.73;101486.47;3590705;39;20476;-68
2023/09/09 08:43:01;;;;;;;42.70;38.47;;;;;;;25.66;64.57;101483.84;3590264;39;20144;-69
2023/09/09 08:46:17;;;;;;;41.67;37.67;;;;;;;25.77;64.69;101490.00;3585386;39;20043;-67
2023/09/09 08:48:43;;;;;;;46.28;41.88;;;;;;;25.88;65.30;101486.84;3592085;39;20047;-66
2023/09/09 08:51:16;;;;;;;37.15;33.65;;;;;;;25.99;62.77;101494.75;3591738;39;20164;-65
2023/09/09 08:53:44;;;;;;;35.53;32.03;;;;;;;26.22;63.16;101494.78;3590673;39;20112;-67
2023/09/09 08:56:13;;;;;;;31.98;28.67;;;;;;;26.34;61.37;101484.19;3592968;39;20055;-68
2023/09/09 08:58:40;;;;;;;24.90;21.63;;;;;;;26.68;60.36;101488.47;3589923;39;20469;-65
2023/09/09 09:01:06;;;;;;;18.08;16.35;;;;;;;26.74;59.14;101487.75;3590415;39;20125;-67
2023/09/09 09:03:33;;;;;;;25.08;22.50;;;;;;;26.84;59.72;101493.84;3585453;39;20059;-66
2023/09/09 09:06:03;;;;;;;23.58;16.67;;;;;;;26.93;58.44;101491.91;3592814;39;20058;-66
2023/09/09 09:08:33;;;;;;;18.63;16.77;;;;;;;27.08;57.93;101490.00;3589005;39;20092;-66
2023/09/09 09:11:03;;;;;;;21.15;19.02;;;;;;;27.36;57.83;101493.03;3591082;39;20487;-67
2023/09/09 09:13:33;;;;;;;16.25;14.65;;;;;;;27.40;58.47;101483.31;3590106;39;20097;-67
2023/09/09 09:16:00;;;;;;;17.75;16.05;;;;;;;27.65;55.06;101497.69;3590706;39;20054;-68
2023/09/09 09:18:26;;;;;;;16.90;11.75;;;;;;;27.85;55.56;101494.41;3590956;39;20052;-67
2023/09/09 09:20:53;;;;;;;10.00;9.05;;;;;;;27.92;52.52;101498.97;3589405;39;20399;-68
2023/09/09 09:23:18;;;;;;;9.20;8.02;;;;;;;28.11;53.30;101502.19;3590228;39;20051;-66
2023/09/09 09:25:47;;;;;;;9.98;8.95;;;;;;;28.21;53.67;101498.03;3589133;39;20258;-66
2023/09/09 09:28:15;;;;;;;9.68;6.70;;;;;;;28.28;50.62;101498.13;3587408;39;20058;-66
2023/09/09 09:30:41;;;;;;;6.70;6.00;;;;;;;28.40;51.97;101499.34;3592692;39;20366;-67
2023/09/09 09:33:07;;;;;;;13.82;12.43;;;;;;;28.50;51.11;101474.13;3592559;39;20058;-66
2023/09/09 09:35:37;;;;;;;13.05;11.68;;;;;;;28.70;52.26;101490.91;3595422;39;20054;-68
2023/09/09 09:38:06;;;;;;;11.25;10.15;;;;;;;28.86;53.15;101485.13;3596480;39;20052;-67
2023/09/09 09:40:33;;;;;;;10.85;8.73;;;;;;;29.02;49.08;101488.69;3592682;39;20055;-69
2023/09/09 09:42:58;;;;;;;13.25;10.98;;;;;;;29.22;48.85;101494.41;3593445;39;20075;-66
2023/09/09 09:45:28;;;;;;;10.88;9.68;;;;;;;29.30;49.73;101486.75;3594103;39;20059;-67
2023/09/09 09:47:55;;;;;;;9.60;8.60;;;;;;;29.42;48.77;101489.00;3592450;39;20051;-67
2023/09/09 09:50:32;;;;;;;14.27;9.02;;;;;;;29.53;50.51;101491.19;3597570;39;20051;-67
2023/09/09 09:53:06;;;;;;;9.90;8.63;;;;;;;29.51;45.98;101483.06;3595747;39;20331;-67
2023/09/09 09:55:36;;;;;;;7.53;6.20;;;;;;;29.71;44.20;101494.28;3585079;39;20059;-68
2023/09/09 09:58:08;;;;;;;5.57;5.03;;;;;;;29.84;41.61;101499.06;3598163;39;20052;-66
2023/09/09 10:00:34;;;;;;;4.95;4.38;;;;;;;29.94;41.76;101493.13;3593859;39;20082;-67
2023/09/09 10:03:05;;;;;;;5.53;4.82;;;;;;;30.07;42.93;101488.50;3592847;39;20055;-67
2023/09/09 10:05:34;;;;;;;4.72;4.30;;;;;;;30.19;42.67;101497.09;3593670;39;20044;-67
2023/09/09 10:08:14;;;;;;;5.90;5.35;;;;;;;29.69;41.16;101371.72;3597188;39;20145;-67
2023/09/09 10:10:56;;;;;;;6.75;5.10;;;;;;;30.56;43.18;101492.09;3596763;39;20385;-67
2023/09/09 10:13:38;;;;;;;5.28;4.78;;;;;;;30.82;41.40;101487.66;3586423;39;20105;-67
2023/09/09 10:16:06;;;;;;;7.38;5.72;;;;;;;30.97;39.49;101491.09;3596682;39;20516;-67
2023/09/09 10:18:37;;;;;;;6.95;6.25;;;;;;;30.95;42.33;101482.09;3586186;39;20345;-66
2023/09/09 10:21:06;;;;;;;5.15;4.10;;;;;;;30.98;38.65;101487.22;3595861;39;20453;-67
2023/09/09 10:23:33;;;;;;;5.80;3.85;;;;;;;31.13;37.91;101481.47;3593256;39;20048;-66
2023/09/09 10:26:00;;;;;;;4.78;4.30;;;;;;;31.32;36.37;101488.06;3591809;39;20052;-65
2023/09/09 10:28:26;;;;;;;6.38;4.15;;;;;;;31.26;37.03;101481.44;3589272;39;20295;-66
2023/09/09 10:30:53;;;;;;;5.13;4.63;;;;;;;31.44;37.80;101462.22;3590593;39;20327;-67
2023/09/09 10:33:20;;;;;;;7.20;6.50;;;;;;;31.56;40.07;101478.19;3591065;39;20087;-68
2023/09/09 10:35:51;;;;;;;6.82;6.03;;;;;;;31.43;40.21;101481.84;3593486;39;20098;-67
2023/09/09 10:38:19;;;;;;;5.88;5.32;;;;;;;31.44;39.38;101483.59;3591931;39;20054;-67
2023/09/09 10:40:48;;;;;;;6.30;5.05;;;;;;;31.60;42.65;101482.28;3591166;39;21246;-67
2023/09/09 10:43:14;;;;;;;5.57;5.07;;;;;;;31.69;39.35;101475.41;3589803;39;20052;-67
2023/09/09 10:45:44;;;;;;;4.88;4.47;;;;;;;31.82;39.34;101480.06;3582335;39;20059;-67
2023/09/09 10:48:11;;;;;;;4.72;4.32;;;;;;;31.94;37.88;101485.78;3591583;39;20068;-67
2023/09/09 10:50:50;;;;;;;4.93;4.38;;;;;;;32.00;39.43;101480.22;3591431;39;20055;-66
2023/09/09 10:53:27;;;;;;;4.93;4.50;;;;;;;32.27;38.45;101482.88;3593272;39;20047;-67
2023/09/09 10:56:20;;;;;;;5.93;5.43;;;;;;;32.36;39.98;101487.09;3590748;39;20069;-68
2023/09/09 10:58:46;;;;;;;;;;;;;;;32.28;39.37;101479.00;3591774;39;20064;-67
2023/09/09 11:01:28;;;;;;;5.50;4.97;;;;;;;32.36;38.94;101481.53;3591662;39;19978;-67
2023/09/09 11:03:54;;;;;;;4.70;3.97;;;;;;;32.33;38.16;101477.25;3592955;39;20056;-66
2023/09/09 11:06:25;;;;;;;4.18;3.88;;;;;;;32.52;36.98;101489.38;3594549;39;20132;-66
2023/09/09 11:08:59;;;;;;;4.43;3.85;;;;;;;32.66;37.40;101492.06;3592523;39;20068;-69
2023/09/09 11:11:37;;;;;;;3.92;3.53;;;;;;;32.75;37.71;101480.41;3595391;39;20051;-68